ADDS METAR Data INFO
IDs: Format: Raw Decoded Include TAF

Data at: 1335 UTC 19 Jul 2018

KFWN 191253Z AUTO 02007KT 10SM CLR 20/12 A3012 RMK AO2 SLP198 T02000117
KFWN 191153Z AUTO 00000KT 10SM CLR 16/13 A3011 RMK AO2 SLP195 T01560133 10156 20100 51012
KFWN 191053Z AUTO 00000KT 10SM CLR 12/12 A3011 RMK AO2 SLP194 T01170117
KFWN 190953Z AUTO 00000KT 10SM CLR 11/10 A3010 RMK AO2 SLP189 T01060100
KFWN 190853Z AUTO 00000KT 10SM CLR 11/11 A3008 RMK AO2 SLP184 T01110106 53011
KFWN 190753Z AUTO 00000KT 10SM CLR 11/11 A3006 RMK AO2 SLP176 T01110111
KFWN 190653Z AUTO 00000KT 10SM CLR 12/12 A3005 RMK AO2 SLP175 T01170117
KFWN 190553Z AUTO 00000KT 10SM CLR 12/12 A3005 RMK AO2 SLP172 T01220122 10239 20122 52010
KFWN 190453Z AUTO 00000KT 10SM CLR 13/12 A3003 RMK AO2 SLP168 T01330122 402830133
KFWN 190353Z AUTO 00000KT 10SM CLR 14/12 A3003 RMK AO2 SLP166 T01440122
KFWN 190253Z AUTO VRB03KT 10SM CLR 17/12 A3001 RMK AO2 SLP161 T01670122 52017
KFWN 190153Z AUTO 31004KT 10SM CLR 21/11 A3000 RMK AO2 SLP156 T02110111
KFWN 190053Z AUTO 30004KT 10SM CLR 22/12 A2998 RMK AO2 SLP148 T02170117
KFWN 182353Z AUTO 32003KT 10SM CLR 24/12 A2996 RMK AO2 SLP143 T02440117 10283 20239 53010
KFWN 182253Z AUTO 31005KT 10SM CLR 26/12 A2995 RMK AO2 SLP138 T02610117
KFWN 182153Z AUTO 36008KT 320V020 10SM CLR 27/12 A2993 RMK AO2 SLP133 T02670117
KFWN 182053Z AUTO 34006KT 10SM CLR 27/12 A2993 RMK AO2 SLP133 T02720117 51000
KFWN 181953Z AUTO 34007KT 300V010 10SM CLR 27/12 A2993 RMK AO2 SLP132 T02720122
KFWN 181853Z AUTO 01009KT 10SM FEW070 27/12 A2994 RMK AO2 SLP134 T02720117
KFWN 181753Z AUTO 01009KT 320V030 10SM CLR 27/12 A2993 RMK AO2 SLP133 T02720122 10278 20189 55004
KFWN 181653Z AUTO 31009G15KT 260V330 10SM FEW060 27/13 A2993 RMK AO2 SLP132 T02670128
KFWN 181553Z AUTO 35008KT 10SM SCT039 BKN049 26/16 A2994 RMK AO2 SLP135 T02560161
KFWN 181453Z AUTO 09004KT 10SM CLR 24/19 A2994 RMK AO2 SLP137 T02440189 50006
KFWN 181353Z AUTO 08007KT 10SM CLR 23/17 A2995 RMK AO2 SLP138 T02280172
KFWN 181253Z AUTO 00000KT 10SM CLR 21/18 A2994 RMK AO2 SLP135 T02110178
KFWN 181153Z AUTO 00000KT 10SM CLR 19/17 A2992 RMK AO2 SLP130 70077 T01890167 10189 20139 51016
KFWN 181053Z AUTO 00000KT 10SM CLR 16/16 A2991 RMK AO2 SLP128 T01560156
KFWN 181014Z AUTO 00000KT 10SM CLR 14/14 A2991 RMK AO2 T01390139
KFWN 181007Z AUTO 00000KT 2 1/2SM BR CLR 14/14 A2990 RMK AO2 T01390139
KFWN 181005Z AUTO 00000KT 1 1/4SM BR FEW001 14/14 A2990 RMK AO2 T01390139
KFWN 180957Z AUTO 00000KT 1 1/2SM BR FEW001 14/14 A2990 RMK AO2 VIS 1/4V5 T01390139
KFWN 180953Z AUTO 00000KT 8SM CLR 14/14 A2989 RMK AO2 SLP121 T01390139
KFWN 180925Z AUTO 00000KT 3SM BR FEW002 14/14 A2989 RMK AO2 T01440144
KFWN 180915Z AUTO 00000KT 1 3/4SM BR FEW002 14/14 A2988 RMK AO2 VIS 1 1/4V5 T01440144
KFWN 180910Z AUTO 00000KT 3SM BR FEW002 14/14 A2988 RMK AO2 T01390139
KFWN 180902Z AUTO 00000KT 2SM BR FEW002 14/14 A2988 RMK AO2 T01440144
KFWN 180900Z AUTO 00000KT 1 1/4SM BR FEW002 14/14 A2988 RMK AO2 T01440144
KFWN 180853Z AUTO 00000KT 3/4SM BR VV002 14/14 A2988 RMK AO2 SLP115 T01440144 53008
KFWN 180850Z AUTO 00000KT 3/4SM BR VV002 14/14 A2988 RMK AO2 VIS 1/2V5
KFWN 180847Z AUTO 00000KT 1 1/4SM BR CLR 14/14 A2988 RMK AO2 VIS 1/2V5
KFWN 180803Z AUTO 00000KT 9SM CLR 16/15 A2986 RMK AO2 T01560150
KFWN 180753Z AUTO 00000KT 2SM BR CLR 16/15 A2986 RMK AO2 VIS 3/4V5 SLP110 T01560150
KFWN 180734Z AUTO 00000KT 10SM FEW002 17/15 A2986 RMK AO2 T01670150
KFWN 180727Z AUTO 32004KT 2 1/2SM BR FEW002 16/16 A2986 RMK AO2 T01610156
KFWN 180725Z AUTO 33003KT 1 1/4SM BR FEW002 16/16 A2986 RMK AO2 T01560156
KFWN 180713Z AUTO 00000KT 3/4SM BR VV002 16/16 A2986 RMK AO2 T01560156
KFWN 180711Z AUTO 00000KT 1 1/4SM BR FEW002 16/16 A2986 RMK AO2 T01560156
KFWN 180653Z AUTO 00000KT 8SM CLR 16/16 A2986 RMK AO2 SLP110 T01610161
KFWN 180553Z AUTO 00000KT 10SM CLR 18/16 A2985 RMK AO2 SLP107 60024 T01780161 10233 20178 56005
KFWN 180520Z AUTO 32003KT 3SM BR SCT002 BKN090 19/18 A2986 RMK AO2 T01890178
KFWN 180515Z AUTO VRB03KT 1 1/2SM BR SCT002 BKN090 19/19 A2985 RMK AO2 VIS 3/4V5 T01890189
KFWN 180501Z AUTO 00000KT 1/2SM FG SCT002 BKN090 18/18 A2985 RMK AO2 T01830183
KFWN 180453Z AUTO 00000KT 1SM BR BKN090 19/19 A2985 RMK AO2 SLP106 T01890189 403060189
KFWN 180450Z AUTO 00000KT 1 1/2SM BR BKN090 19/19 A2985 RMK AO2 VIS 1/2V5
KFWN 180353Z AUTO 00000KT 9SM FEW003 SCT085 20/19 A2985 RMK AO2 SLP104 T02000194
KFWN 180326Z AUTO 00000KT 8SM FEW003 BKN085 OVC110 20/20 A2986 RMK AO2 T02000200
KFWN 180253Z AUTO 00000KT 8SM OVC070 20/20 A2987 RMK AO2 RAE24 SLP110 P0000 60024 T02000200 51012
KFWN 180153Z AUTO 00000KT 5SM -RA BR BKN065 OVC080 20/20 A2986 RMK AO2 SLP108 P0014 T02000200